Flight Track Log - Related Links

Times and Time Zones

All times are in EDT time to prevent confusion due to time zone crossing. See the UPS1333 flight status page for this flight to view local times or setup timezone preferences in your user account.

Time Position Orientation Groundspeed Altitude Reporting Facility
EDT Latitude Longitude Course Direction KTS MPH feet Rate Location/Type
Fri 10:04:26 PM 26.6912 -80.1728 275° West 227 261 3,100  Level FlightAware ADS-B (RJTF)
Fri 10:04:41 PM 26.6926 -80.1907 275° West 234 269 4,000 3,517 Climbing FlightAware ADS-B (RJTF)
Fri 10:04:55 PM 26.6974 -80.2073 302° West 239 275 4,800 3,310 Climbing FlightAware ADS-B (RJTF)
Fri 10:05:10 PM 26.7083 -80.2210 319° Northwest 250 288 5,600 2,903 Climbing FlightAware ADS-B (RJTF)
Fri 10:05:26 PM 26.7236 -80.2336 326° Northwest 261 300 6,300 3,000 Climbing FlightAware ADS-B (RJTF)
Fri 10:05:56 PM 26.7554 -80.2558 329° Northwest 273 314 7,900 3,200 Climbing FlightAware ADS-B (RJTF)
Fri 10:06:11 PM 26.7714 -80.2666 329° Northwest 280 322 8,700 3,200 Climbing FlightAware ADS-B (RJTF)
Fri 10:06:26 PM 26.7828 -80.2744 328° Northwest 285 328 9,500 3,067 Climbing FlightAware ADS-B (RJTF)
Fri 10:06:56 PM 26.8220 -80.3013 329° Northwest 298 343 11,000 2,467 Climbing FlightAware ADS-B (RJTF)
Fri 10:07:56 PM 26.9038 -80.3510 332° Northwest 341 392 13,200 2,388 Climbing FlightAware ADS-B (RJTF)
Fri 10:08:39 PM 26.9649 -80.3877 332° Northwest 357 411 15,100 2,933 Climbing FlightAware ADS-B (RJTF)
Fri 10:09:26 PM 27.0356 -80.4296 333° Northwest 370 426 17,600 2,809 Climbing FlightAware ADS-B (RJTF)
Fri 10:12:34 PM 27.3352 -80.6075 332° Northwest 419 482 26,100 2,691 Climbing FlightAware ADS-B
Fri 10:13:09 PM 27.3958 -80.6438 332° Northwest 426 490 27,600 2,400 Climbing FlightAware ADS-B
Fri 10:13:54 PM 27.4759 -80.6913 332° Northwest 437 503 29,300 2,538 Climbing FlightAware ADS-B
Fri 10:14:53 PM 27.5802 -80.7529 332° Northwest 430 495 32,000 2,700 Climbing FlightAware ADS-B
Fri 10:15:34 PM 27.6525 -80.7959 332° Northwest 427 491 33,800 2,667 Climbing FlightAware ADS-B
Fri 10:16:14 PM 27.7229 -80.8375 332° Northwest 417 480 35,600 2,582 Climbing FlightAware ADS-B
Fri 10:16:53 PM 27.7881 -80.8761 332° Northwest 411 473 37,200 2,127 Climbing FlightAware ADS-B
Fri 10:17:33 PM 27.8523 -80.9150 332° Northwest 409 471 38,400 1,500 Climbing FlightAware ADS-B
Fri 10:18:09 PM 27.9149 -80.9530 332° Northwest 408 470 39,100 1,182 Climbing FlightAware ADS-B (KSFB)
Fri 10:18:39 PM 27.9629 -80.9822 332° Northwest 407 468 39,700 1,082 Climbing FlightAware ADS-B (KSFB)
Fri 10:19:10 PM 28.0117 -81.0119 332° Northwest 413 475 40,200 960 Climbing FlightAware ADS-B (KSFB)
Fri 10:19:54 PM 28.0895 -81.0593 332° Northwest 417 480 40,900 941 Climbing FlightAware ADS-B
Fri 10:20:01 PM 28.0996 -81.0655 332° Northwest 418 481 41,000 130 Climbing FlightAware ADS-B (KSFB)
Fri 10:20:40 PM 28.1697 -81.1022 338° Northwest 417 480 41,000  Level FlightAware ADS-B (KSFB)
Fri 10:21:13 PM 28.2278 -81.1260 341° North 417 480 41,000  Level FlightAware ADS-B
Fri 10:21:48 PM 28.2956 -81.1508 342° North 416 479 41,000  Level FlightAware ADS-B (KSFB)
Fri 10:22:19 PM 28.3465 -81.1690 342° North 415 478 41,000  Level FlightAware ADS-B (KSFB)
Fri 10:22:49 PM 28.4067 -81.1908 342° North 413 475 41,000  Level FlightAware ADS-B (KSFB)
Fri 10:23:20 PM 28.4626 -81.2117 342° North 412 474 41,000  Level FlightAware ADS-B (KSFB)
Fri 10:23:54 PM 28.5250 -81.2358 341° North 412 474 41,000  Level FlightAware ADS-B
Fri 10:24:30 PM 28.5894 -81.2610 341° North 411 473 41,000  Level FlightAware ADS-B (KSFB)
Fri 10:25:09 PM 28.6579 -81.2878 341° North 410 472 41,000  Level FlightAware ADS-B (KSFB)
Fri 10:25:41 PM 28.7120 -81.3089 341° North 410 472 41,000  Level FlightAware ADS-B (KSFB)
Fri 10:26:11 PM 28.7619 -81.3281 341° North 410 472 41,000  Level FlightAware ADS-B (KSFB)
Fri 10:26:42 PM 28.8249 -81.3519 342° North 411 473 41,000  Level FlightAware ADS-B (KSFB)
Fri 10:27:10 PM 28.8090 -81.3459 330° Northwest 418 481 41,000  Level FlightAware ADS-B (KSFB)
Fri 10:27:40 PM 28.9138 -81.4044 327° Northwest 422 486 41,000  Level FlightAware ADS-B (KSFB)
Fri 10:28:10 PM 28.9727 -81.4487 327° Northwest 422 486 41,000  Level FlightAware ADS-B (KSFB)
Fri 10:28:51 PM 29.0397 -81.4987 327° Northwest 422 486 41,000  Level FlightAware ADS-B (KSFB)
Fri 10:29:36 PM 29.1142 -81.5535 325° Northwest 424 488 41,000  Level FlightAware ADS-B
Fri 10:29:55 PM 29.1422 -81.5823 312° West 428 493 41,000  Level FlightAware ADS-B
Fri 10:30:36 PM 29.1855 -81.6601 294° West 435 501 41,000  Level FlightAware ADS-B
Fri 10:31:16 PM 29.2113 -81.7437 290° West 438 504 41,000  Level FlightAware ADS-B
Fri 10:31:56 PM 29.2410 -81.8340 291° West 438 504 41,000  Level FlightAware ADS-B
Fri 10:32:36 PM 29.2706 -81.9177 292° West 439 505 41,000  Level FlightAware ADS-B
Fri 10:33:16 PM 29.3018 -82.0051 292° West 439 505 41,000  Level FlightAware ADS-B
Fri 10:33:56 PM 29.3322 -82.0916 292° West 439 505 41,000  Level FlightAware ADS-B
Fri 10:34:37 PM 29.3631 -82.1803 292° West 438 504 41,000  Level FlightAware ADS-B
Fri 10:35:18 PM 29.3929 -82.2664 292° West 438 504 41,000  Level FlightAware ADS-B
Fri 10:35:57 PM 29.4223 -82.3516 292° West 437 503 41,000  Level FlightAware ADS-B
Fri 10:36:36 PM 29.4512 -82.4352 292° West 434 499 41,000  Level FlightAware ADS-B
Fri 10:37:16 PM 29.4803 -82.5198 292° West 434 499 41,000  Level FlightAware ADS-B
Fri 10:37:57 PM 29.5109 -82.6093 291° West 433 498 41,000  Level FlightAware ADS-B
Fri 10:38:33 PM 29.5361 -82.6834 291° West 434 499 41,000  Level FlightAware ADS-B
Fri 10:39:19 PM 29.5664 -82.7725 291° West 433 498 41,000  Level Miami Center
Fri 10:40:20 PM 29.6100 -82.9017 291° West 432 497 41,000  Level Miami Center
Fri 10:41:21 PM 29.6492 -83.0194 291° West 433 498 41,000  Level Miami Center
Fri 10:42:20 PM 29.6911 -83.1447 291° West 437 503 41,000  Level Miami Center
Fri 10:48:12 PM 29.9611 -83.9476 291° West 442 509 41,000 -92 Level FlightAware ADS-B (KONZ)
Fri 10:48:52 PM 29.9904 -84.0372 291° West 448 516 40,400 -750 Descending FlightAware ADS-B (KONZ)
Fri 10:49:32 PM 30.0198 -84.1272 291° West 445 512 40,000 -343 Descending FlightAware ADS-B (KONZ)
Fri 10:50:02 PM 30.0398 -84.1888 291° West 440 506 40,000  Level FlightAware ADS-B (KONZ)
Fri 10:51:13 PM 30.0924 -84.3502 291° West 443 510 40,000  Level FlightAware ADS-B (KONZ)
Fri 10:51:52 PM 30.1191 -84.4314 291° West 449 517 40,000  Level FlightAware ADS-B
Fri 10:52:22 PM 30.1199 -84.4341 291° West 451 519 40,000  Level FlightAware ADS-B (KONZ)
Fri 10:52:53 PM 30.1347 -84.4791 281° West 459 528 40,000  Level FlightAware ADS-B
Fri 10:53:31 PM 30.1678 -84.6291 282° West 460 529 40,000  Level FlightAware ADS-B
Fri 10:54:02 PM 30.1890 -84.7433 282° West 455 524 40,000  Level FlightAware ADS-B
Fri 10:54:47 PM 30.2098 -84.8498 285° West 448 516 40,000  Level FlightAware ADS-B
Fri 10:55:22 PM 30.2317 -84.9312 288° West 447 514 40,000  Level FlightAware ADS-B
Fri 10:55:52 PM 30.2504 -84.9995 287° West 446 513 40,000  Level FlightAware ADS-B
Fri 10:56:33 PM 30.2746 -85.0907 287° West 440 506 40,000  Level FlightAware ADS-B
Fri 10:57:03 PM 30.2921 -85.1586 286° West 438 504 40,000  Level FlightAware ADS-B
Fri 10:57:43 PM 30.3149 -85.2478 287° West 436 502 40,000  Level FlightAware ADS-B
Fri 11:02:05 PM 30.4922 -85.8242 294° West 444 511 40,000  Level FlightAware ADS-B (KHRT)
Fri 11:03:05 PM 30.5304 -85.9215 295° West 446 513 40,000  Level FlightAware ADS-B (KHRT)
Fri 11:04:03 PM 30.5882 -86.0631 296° West 454 522 40,000  Level FlightAware ADS-B (KHRT)
Fri 11:05:04 PM 30.6782 -86.1889 329° Northwest 450 518 40,000  Level FlightAware ADS-B (KHRT)
Fri 11:05:58 PM 30.7683 -86.2407 339° North 451 519 40,000  Level FlightAware ADS-B (KHRT)
Fri 11:06:35 PM 30.8500 -86.2726 349° North 449 517 40,000  Level FlightAware ADS-B (KHRT)
Fri 11:07:00 PM 30.9026 -86.2807 North 447 514 40,000  Level FlightAware ADS-B (KHRT)
Fri 11:07:32 PM 30.9741 -86.2661 21° North 443 510 40,000  Level FlightAware ADS-B (KHRT)
Fri 11:08:35 PM 31.0908 -86.2161 21° North 418 481 40,000  Level Atlanta Center
Fri 11:09:35 PM 31.2044 -86.1631 22° Northeast 423 487 40,000  Level Atlanta Center
Fri 11:10:35 PM 31.3183 -86.1072 23° Northeast 434 499 40,000  Level Atlanta Center
Fri 11:11:35 PM 31.4358 -86.0564 20° North 434 499 40,000  Level Atlanta Center
Fri 11:12:35 PM 31.5494 -86.0031 22° Northeast 434 499 40,000  Level Atlanta Center
Fri 11:13:35 PM 31.6608 -85.9492 22° Northeast 434 499 40,000  Level Atlanta Center
Fri 11:14:35 PM 31.7764 -85.9003 20° North 434 499 40,000 350 Level Atlanta Center
Fri 11:15:35 PM 31.8919 -85.8489 21° North 434 499 40,700 500 Climbing Atlanta Center
Fri 11:16:35 PM 31.9992 -85.7947 23° Northeast 429 494 41,000 150 Climbing Atlanta Center
Fri 11:17:35 PM 32.1169 -85.7358 23° Northeast 435 501 41,000  Level Atlanta Center
Fri 11:18:35 PM 32.2367 -85.6817 21° North 441 507 41,000  Level Atlanta Center
Fri 11:19:35 PM 32.3542 -85.6272 21° North 446 513 41,000  Level Atlanta Center
Fri 11:20:35 PM 32.4761 -85.5703 21° North 456 525 41,000  Level Atlanta Center
Fri 11:21:35 PM 32.5956 -85.5133 22° Northeast 465 535 41,000  Level Atlanta Center
Fri 11:22:35 PM 32.7069 -85.4633 21° North 470 541 41,000  Level Atlanta Center
Fri 11:23:35 PM 32.8308 -85.4033 22° Northeast 470 541 41,000  Level Atlanta Center
Fri 11:24:35 PM 32.9503 -85.3483 21° North 470 541 41,000  Level Atlanta Center
Fri 11:25:35 PM 33.0719 -85.2956 20° North 470 541 41,000  Level Atlanta Center
Fri 11:26:35 PM 33.1936 -85.2353 23° Northeast 470 541 41,000  Level Atlanta Center
Fri 11:27:35 PM 33.3131 -85.1797 21° North 470 541 41,000  Level Atlanta Center
Fri 11:28:35 PM 33.4367 -85.1242 21° North 470 541 41,000  Level Atlanta Center
Fri 11:29:35 PM 33.5664 -85.1058 North 460 529 41,000  Level Atlanta Center
Fri 11:30:35 PM 33.6978 -85.1025 North 465 535 41,000  Level Atlanta Center
Fri 11:31:35 PM 33.8397 -85.0967 North 465 535 41,000  Level Atlanta Center
Fri 11:32:35 PM 33.9692 -85.0933 North 459 528 41,000  Level Atlanta Center
Fri 11:33:35 PM 34.0967 -85.0900 North 459 528 41,000  Level Atlanta Center
Fri 11:34:35 PM 34.2239 -85.0864 North 459 528 41,000  Level Atlanta Center
Fri 11:35:35 PM 34.3514 -85.0781 North 459 528 41,000  Level Atlanta Center
Fri 11:36:16 PM 34.4445 -85.0698 North 442 509 41,000  Level FlightAware ADS-B (KMDQ)
Fri 11:37:35 PM 34.6039 -85.0683 North 459 528 41,000  Level Atlanta Center
Fri 11:38:35 PM 34.7125 -85.0622 North 452 520 41,000 -814 Level Atlanta Center
Fri 11:44:28 PM 35.4523 -85.0333 North 415 478 35,400 -929 Descending FlightAware ADS-B (KMDQ)
Fri 11:45:35 PM 35.5600 -85.0319 North 418 481 34,500 -898 Descending Atlanta Center
Fri 11:46:35 PM 35.6725 -85.0281 North 412 474 33,500 -685 Descending Atlanta Center
Fri 11:52:09 PM 36.2785 -85.0028 North 360 414 30,000 -529 Descending FlightAware ADS-B
Fri 11:53:12 PM 36.3828 -84.9989 North 358 412 30,000 -341 Level FlightAware ADS-B
Fri 11:54:12 PM 36.4837 -84.9949 North 351 404 29,300 -897 Descending FlightAware ADS-B
Fri 11:54:59 PM 36.5344 -84.9929 North 343 395 28,400 -1,463 Descending FlightAware ADS-B
Fri 11:56:15 PM 36.6793 -84.9885 North 340 391 26,300 -1,714 Descending FlightAware ADS-B
Fri 11:57:12 PM 36.7699 -84.9855 North 342 394 24,600 -1,700 Descending FlightAware ADS-B
Fri 11:58:15 PM 36.8696 -84.9822 North 341 392 22,900 -1,525 Descending FlightAware ADS-B
Fri 11:59:14 PM 36.9623 -84.9790 North 329 379 21,500 -1,311 Descending FlightAware ADS-B
Sat 12:00:14 AM 37.0525 -84.9758 North 314 361 20,300 -1,340 Descending FlightAware ADS-B
Sat 12:02:40 AM 37.2586 -84.9681 North 293 337 16,900 -1,326 Descending FlightAware ADS-B
Sat 12:04:41 AM 37.4263 -84.9618 North 295 339 14,400 -1,193 Descending FlightAware ADS-B
Sat 12:05:41 AM 37.5063 -84.9589 North 284 327 13,300 -1,341 Descending FlightAware ADS-B
Sat 12:07:40 AM 37.6647 -84.9692 325° Northwest 287 330 10,400 -1,467 Descending FlightAware ADS-B
Sat 12:08:41 AM 37.7152 -85.0475 299° West 283 326 8,900 -1,228 Descending FlightAware ADS-B
Sat 12:09:47 AM 37.7575 -85.1424 299° West 283 326 7,800 -1,000 Descending FlightAware ADS-B
Sat 12:10:47 AM 37.7944 -85.2298 297° West 284 327 6,800 -1,000 Descending FlightAware ADS-B
Sat 12:11:47 AM 37.8290 -85.3155 297° West 272 313 5,800 -976 Descending FlightAware ADS-B
Sat 12:12:50 AM 37.8662 -85.4032 298° West 270 311 4,800 -968 Descending FlightAware ADS-B
Sat 12:13:51 AM 37.9021 -85.4880 298° West 268 308 3,800 -800 Descending FlightAware ADS-B
Sat 12:14:50 AM 37.9203 -85.5703 266° West 225 259 3,200 -400 Descending FlightAware ADS-B
Sat 12:15:51 AM 37.9387 -85.6397 328° Northwest 212 244 3,000 -99 Descending FlightAware ADS-B
Sat 12:16:51 AM 37.9908 -85.6650 348° North 188 216 3,000 -50 Level FlightAware ADS-B
Sat 12:17:51 AM 38.0418 -85.6818 345° North 171 197 2,900 -504 Descending FlightAware ADS-B
Sat 12:18:50 AM 38.0870 -85.6972 345° North 158 182 2,000 -828 Descending FlightAware ADS-B
Sat 12:19:47 AM 38.1197 -85.7085 345° North 122 140 1,300 16,768 Descending FlightAware ADS-B
Sat 12:20:42 AM 38.1333 -85.7167 335° Northwest 188 216 33,300 34,909 Climbing FlightAware ADS-B
Sat 12:28:00 AM 38.1667 -85.7333 208° Southwest  Level FlightAware Approximate

Login

Don't have an account? Register now (free) for customized features, flight alerts, and more!